sensor_id;sensor_type;location;lat;lon;timestamp;temperature;humidity
52787;DHT22;38661;53.152;5.846;2023-11-19T00:00:31;11.80;99.90
52787;DHT22;38661;53.152;5.846;2023-11-19T00:02:57;11.80;99.90
52787;DHT22;38661;53.152;5.846;2023-11-19T00:05:23;11.80;99.90
52787;DHT22;38661;53.152;5.846;2023-11-19T00:07:48;11.80;99.90
52787;DHT22;38661;53.152;5.846;2023-11-19T00:10:15;11.80;99.90
52787;DHT22;38661;53.152;5.846;2023-11-19T00:12:45;11.90;99.90
52787;DHT22;38661;53.152;5.846;2023-11-19T00:15:13;11.80;99.90
52787;DHT22;38661;53.152;5.846;2023-11-19T00:17:44;11.90;99.90
52787;DHT22;38661;53.152;5.846;2023-11-19T00:20:19;11.90;99.90
52787;DHT22;38661;53.152;5.846;2023-11-19T00:22:47;12.00;99.90
52787;DHT22;38661;53.152;5.846;2023-11-19T00:25:19;12.00;99.90
52787;DHT22;38661;53.152;5.846;2023-11-19T00:27:45;12.00;99.90
52787;DHT22;38661;53.152;5.846;2023-11-19T00:30:11;12.00;99.90
52787;DHT22;38661;53.152;5.846;2023-11-19T00:32:37;12.00;99.90
52787;DHT22;38661;53.152;5.846;2023-11-19T00:35:05;12.00;99.90
52787;DHT22;38661;53.152;5.846;2023-11-19T00:37:32;12.00;99.90
52787;DHT22;38661;53.152;5.846;2023-11-19T00:39:57;12.10;99.90
52787;DHT22;38661;53.152;5.846;2023-11-19T00:42:24;12.10;99.90
52787;DHT22;38661;53.152;5.846;2023-11-19T00:44:50;12.10;99.90
52787;DHT22;38661;53.152;5.846;2023-11-19T00:47:17;12.10;99.90
52787;DHT22;38661;53.152;5.846;2023-11-19T00:49:46;12.10;99.90
52787;DHT22;38661;53.152;5.846;2023-11-19T00:52:14;12.20;99.90
52787;DHT22;38661;53.152;5.846;2023-11-19T00:54:40;12.10;99.90
52787;DHT22;38661;53.152;5.846;2023-11-19T00:57:06;12.00;99.90
52787;DHT22;38661;53.152;5.846;2023-11-19T00:59:31;12.10;99.90
52787;DHT22;38661;53.152;5.846;2023-11-19T01:01:58;12.10;99.80
52787;DHT22;38661;53.152;5.846;2023-11-19T01:04:37;12.00;99.80
52787;DHT22;38661;53.152;5.846;2023-11-19T01:07:03;12.00;99.80
52787;DHT22;38661;53.152;5.846;2023-11-19T01:09:30;12.10;99.70
52787;DHT22;38661;53.152;5.846;2023-11-19T01:11:58;12.00;99.80
52787;DHT22;38661;53.152;5.846;2023-11-19T01:14:26;12.00;99.80
52787;DHT22;38661;53.152;5.846;2023-11-19T01:16:51;12.00;99.60
52787;DHT22;38661;53.152;5.846;2023-11-19T01:19:19;12.00;99.70
52787;DHT22;38661;53.152;5.846;2023-11-19T01:21:45;12.00;99.60
52787;DHT22;38661;53.152;5.846;2023-11-19T01:24:10;12.00;99.60
52787;DHT22;38661;53.152;5.846;2023-11-19T01:26:38;12.00;99.60
52787;DHT22;38661;53.152;5.846;2023-11-19T01:29:04;12.00;99.60
52787;DHT22;38661;53.152;5.846;2023-11-19T01:31:30;12.00;99.60
52787;DHT22;38661;53.152;5.846;2023-11-19T01:33:59;12.00;99.50
52787;DHT22;38661;53.152;5.846;2023-11-19T01:36:25;12.00;99.50
52787;DHT22;38661;53.152;5.846;2023-11-19T01:38:50;12.00;99.50
52787;DHT22;38661;53.152;5.846;2023-11-19T01:41:16;12.00;99.40
52787;DHT22;38661;53.152;5.846;2023-11-19T01:43:41;12.00;99.30
52787;DHT22;38661;53.152;5.846;2023-11-19T01:46:08;11.90;99.40
52787;DHT22;38661;53.152;5.846;2023-11-19T01:48:42;11.90;99.40
52787;DHT22;38661;53.152;5.846;2023-11-19T01:51:09;11.90;99.30
52787;DHT22;38661;53.152;5.846;2023-11-19T01:53:37;11.80;99.30
52787;DHT22;38661;53.152;5.846;2023-11-19T01:56:04;11.70;99.30
52787;DHT22;38661;53.152;5.846;2023-11-19T01:58:31;11.70;99.30
52787;DHT22;38661;53.152;5.846;2023-11-19T02:00:57;11.60;99.20
52787;DHT22;38661;53.152;5.846;2023-11-19T02:03:23;11.60;99.20
52787;DHT22;38661;53.152;5.846;2023-11-19T02:05:51;11.60;99.20
52787;DHT22;38661;53.152;5.846;2023-11-19T02:08:18;11.50;99.20
52787;DHT22;38661;53.152;5.846;2023-11-19T02:10:45;11.50;99.20
52787;DHT22;38661;53.152;5.846;2023-11-19T02:13:11;11.50;99.20
52787;DHT22;38661;53.152;5.846;2023-11-19T02:15:40;11.50;99.20
52787;DHT22;38661;53.152;5.846;2023-11-19T02:18:26;11.50;99.20
52787;DHT22;38661;53.152;5.846;2023-11-19T02:20:58;11.50;99.20
52787;DHT22;38661;53.152;5.846;2023-11-19T02:23:28;11.50;99.20
52787;DHT22;38661;53.152;5.846;2023-11-19T02:28:51;11.50;99.10
52787;DHT22;38661;53.152;5.846;2023-11-19T02:31:17;11.50;99.10
52787;DHT22;38661;53.152;5.846;2023-11-19T02:33:44;11.50;98.80
52787;DHT22;38661;53.152;5.846;2023-11-19T02:36:10;11.50;99.00
52787;DHT22;38661;53.152;5.846;2023-11-19T02:38:36;11.50;98.80
52787;DHT22;38661;53.152;5.846;2023-11-19T02:41:06;11.50;98.70
52787;DHT22;38661;53.152;5.846;2023-11-19T02:43:36;11.50;98.70
52787;DHT22;38661;53.152;5.846;2023-11-19T02:46:02;11.50;98.70
52787;DHT22;38661;53.152;5.846;2023-11-19T02:48:32;11.50;98.60
52787;DHT22;38661;53.152;5.846;2023-11-19T02:50:58;11.50;98.60
52787;DHT22;38661;53.152;5.846;2023-11-19T02:53:24;11.60;98.50
52787;DHT22;38661;53.152;5.846;2023-11-19T02:55:53;11.60;98.50
52787;DHT22;38661;53.152;5.846;2023-11-19T02:58:18;11.60;98.50
52787;DHT22;38661;53.152;5.846;2023-11-19T03:00:49;11.60;98.50
52787;DHT22;38661;53.152;5.846;2023-11-19T03:03:26;11.60;98.50
52787;DHT22;38661;53.152;5.846;2023-11-19T03:06:04;11.60;98.50
52787;DHT22;38661;53.152;5.846;2023-11-19T03:08:30;11.70;98.60
52787;DHT22;38661;53.152;5.846;2023-11-19T03:10:56;11.80;98.50
52787;DHT22;38661;53.152;5.846;2023-11-19T03:13:22;11.80;98.50
52787;DHT22;38661;53.152;5.846;2023-11-19T03:15:47;11.90;98.40
52787;DHT22;38661;53.152;5.846;2023-11-19T03:18:13;11.90;98.30
52787;DHT22;38661;53.152;5.846;2023-11-19T03:20:39;11.90;98.30
52787;DHT22;38661;53.152;5.846;2023-11-19T03:23:05;11.90;98.30
52787;DHT22;38661;53.152;5.846;2023-11-19T03:25:32;12.00;98.20
52787;DHT22;38661;53.152;5.846;2023-11-19T03:28:02;12.00;98.10
52787;DHT22;38661;53.152;5.846;2023-11-19T03:30:28;12.00;98.00
52787;DHT22;38661;53.152;5.846;2023-11-19T03:32:58;12.00;97.90
52787;DHT22;38661;53.152;5.846;2023-11-19T03:35:24;12.00;97.70
52787;DHT22;38661;53.152;5.846;2023-11-19T03:37:51;12.00;97.60
52787;DHT22;38661;53.152;5.846;2023-11-19T03:40:17;12.00;97.50
52787;DHT22;38661;53.152;5.846;2023-11-19T03:42:44;11.90;97.50
52787;DHT22;38661;53.152;5.846;2023-11-19T03:45:10;11.90;97.40
52787;DHT22;38661;53.152;5.846;2023-11-19T03:47:36;11.80;97.30
52787;DHT22;38661;53.152;5.846;2023-11-19T03:50:02;11.80;97.20
52787;DHT22;38661;53.152;5.846;2023-11-19T03:52:28;11.70;96.90
52787;DHT22;38661;53.152;5.846;2023-11-19T03:54:57;11.70;97.00
52787;DHT22;38661;53.152;5.846;2023-11-19T03:57:23;11.60;97.10
52787;DHT22;38661;53.152;5.846;2023-11-19T03:59:49;11.60;96.90
52787;DHT22;38661;53.152;5.846;2023-11-19T04:02:15;11.60;96.90
52787;DHT22;38661;53.152;5.846;2023-11-19T04:04:41;11.60;96.50
52787;DHT22;38661;53.152;5.846;2023-11-19T04:07:07;11.50;96.50
52787;DHT22;38661;53.152;5.846;2023-11-19T04:09:33;11.50;96.60
52787;DHT22;38661;53.152;5.846;2023-11-19T04:11:59;11.50;96.60
52787;DHT22;38661;53.152;5.846;2023-11-19T04:14:26;11.40;96.70
52787;DHT22;38661;53.152;5.846;2023-11-19T04:16:52;11.40;96.60
52787;DHT22;38661;53.152;5.846;2023-11-19T04:19:19;11.30;96.80
52787;DHT22;38661;53.152;5.846;2023-11-19T04:21:45;11.30;96.80
52787;DHT22;38661;53.152;5.846;2023-11-19T04:24:11;11.40;96.80
52787;DHT22;38661;53.152;5.846;2023-11-19T04:26:45;11.40;96.60
52787;DHT22;38661;53.152;5.846;2023-11-19T04:29:15;11.40;96.70
52787;DHT22;38661;53.152;5.846;2023-11-19T04:31:43;11.40;96.70
52787;DHT22;38661;53.152;5.846;2023-11-19T04:34:09;11.40;96.70
52787;DHT22;38661;53.152;5.846;2023-11-19T04:36:36;11.50;96.50
52787;DHT22;38661;53.152;5.846;2023-11-19T04:39:03;11.50;96.50
52787;DHT22;38661;53.152;5.846;2023-11-19T04:41:48;11.50;96.30
52787;DHT22;38661;53.152;5.846;2023-11-19T04:44:15;11.50;96.50
52787;DHT22;38661;53.152;5.846;2023-11-19T04:46:41;11.50;96.10
52787;DHT22;38661;53.152;5.846;2023-11-19T04:49:09;11.50;96.00
52787;DHT22;38661;53.152;5.846;2023-11-19T04:51:43;11.50;95.90
52787;DHT22;38661;53.152;5.846;2023-11-19T04:54:09;11.50;96.00
52787;DHT22;38661;53.152;5.846;2023-11-19T04:56:36;11.60;95.70
52787;DHT22;38661;53.152;5.846;2023-11-19T04:59:05;11.60;95.80
52787;DHT22;38661;53.152;5.846;2023-11-19T05:01:35;11.50;95.70
52787;DHT22;38661;53.152;5.846;2023-11-19T05:04:01;11.60;95.50
52787;DHT22;38661;53.152;5.846;2023-11-19T05:06:30;11.60;95.40
52787;DHT22;38661;53.152;5.846;2023-11-19T05:09:00;11.60;95.30
52787;DHT22;38661;53.152;5.846;2023-11-19T05:11:30;11.60;95.00
52787;DHT22;38661;53.152;5.846;2023-11-19T05:13:56;11.60;95.00
52787;DHT22;38661;53.152;5.846;2023-11-19T05:16:21;11.60;95.10
52787;DHT22;38661;53.152;5.846;2023-11-19T05:18:47;11.60;95.00
52787;DHT22;38661;53.152;5.846;2023-11-19T05:21:13;11.60;94.90
52787;DHT22;38661;53.152;5.846;2023-11-19T05:23:39;11.60;94.90
52787;DHT22;38661;53.152;5.846;2023-11-19T05:26:05;11.50;94.90
52787;DHT22;38661;53.152;5.846;2023-11-19T05:28:31;11.50;94.70
52787;DHT22;38661;53.152;5.846;2023-11-19T05:30:57;11.50;94.60
52787;DHT22;38661;53.152;5.846;2023-11-19T05:33:23;11.50;94.60
52787;DHT22;38661;53.152;5.846;2023-11-19T05:35:48;11.50;94.20
52787;DHT22;38661;53.152;5.846;2023-11-19T05:38:14;11.60;94.00
52787;DHT22;38661;53.152;5.846;2023-11-19T05:40:41;11.60;93.90
52787;DHT22;38661;53.152;5.846;2023-11-19T05:43:07;11.60;93.90
52787;DHT22;38661;53.152;5.846;2023-11-19T05:45:32;11.60;93.50
52787;DHT22;38661;53.152;5.846;2023-11-19T05:47:58;11.60;93.70
52787;DHT22;38661;53.152;5.846;2023-11-19T05:50:24;11.60;93.60
52787;DHT22;38661;53.152;5.846;2023-11-19T05:52:50;11.60;93.50
52787;DHT22;38661;53.152;5.846;2023-11-19T05:55:16;11.60;93.50
52787;DHT22;38661;53.152;5.846;2023-11-19T05:57:41;11.60;93.60
52787;DHT22;38661;53.152;5.846;2023-11-19T06:00:08;11.60;93.30
52787;DHT22;38661;53.152;5.846;2023-11-19T06:02:34;11.60;93.30
52787;DHT22;38661;53.152;5.846;2023-11-19T06:05:00;11.70;93.10
52787;DHT22;38661;53.152;5.846;2023-11-19T06:07:27;11.60;93.10
52787;DHT22;38661;53.152;5.846;2023-11-19T06:09:53;11.70;93.00
52787;DHT22;38661;53.152;5.846;2023-11-19T06:12:19;11.60;93.10
52787;DHT22;38661;53.152;5.846;2023-11-19T06:14:45;11.70;93.00
52787;DHT22;38661;53.152;5.846;2023-11-19T06:17:10;11.60;92.90
52787;DHT22;38661;53.152;5.846;2023-11-19T06:19:37;11.60;93.10
52787;DHT22;38661;53.152;5.846;2023-11-19T06:22:06;11.60;92.90
52787;DHT22;38661;53.152;5.846;2023-11-19T06:24:32;11.60;92.60
52787;DHT22;38661;53.152;5.846;2023-11-19T06:26:58;11.60;92.50
52787;DHT22;38661;53.152;5.846;2023-11-19T06:29:23;11.60;92.50
52787;DHT22;38661;53.152;5.846;2023-11-19T06:31:50;11.60;92.40
52787;DHT22;38661;53.152;5.846;2023-11-19T06:34:16;11.50;92.30
52787;DHT22;38661;53.152;5.846;2023-11-19T06:36:42;11.60;92.30
52787;DHT22;38661;53.152;5.846;2023-11-19T06:39:10;11.50;92.30
52787;DHT22;38661;53.152;5.846;2023-11-19T06:41:36;11.50;92.40
52787;DHT22;38661;53.152;5.846;2023-11-19T06:44:05;11.50;92.50
52787;DHT22;38661;53.152;5.846;2023-11-19T06:46:31;11.50;92.50
52787;DHT22;38661;53.152;5.846;2023-11-19T06:48:57;11.50;92.40
52787;DHT22;38661;53.152;5.846;2023-11-19T06:51:23;11.50;92.40
52787;DHT22;38661;53.152;5.846;2023-11-19T06:53:50;11.50;92.40
52787;DHT22;38661;53.152;5.846;2023-11-19T06:56:22;11.50;92.40
52787;DHT22;38661;53.152;5.846;2023-11-19T06:58:49;11.50;92.30
52787;DHT22;38661;53.152;5.846;2023-11-19T07:01:15;11.50;92.30
52787;DHT22;38661;53.152;5.846;2023-11-19T07:03:41;11.50;92.20
52787;DHT22;38661;53.152;5.846;2023-11-19T07:06:07;11.50;92.00
52787;DHT22;38661;53.152;5.846;2023-11-19T07:08:34;11.50;92.10
52787;DHT22;38661;53.152;5.846;2023-11-19T07:11:00;11.50;92.00
52787;DHT22;38661;53.152;5.846;2023-11-19T07:13:25;11.50;92.10
52787;DHT22;38661;53.152;5.846;2023-11-19T07:15:55;11.50;92.10
52787;DHT22;38661;53.152;5.846;2023-11-19T07:18:21;11.40;92.20
52787;DHT22;38661;53.152;5.846;2023-11-19T07:20:50;11.40;92.30
52787;DHT22;38661;53.152;5.846;2023-11-19T07:23:15;11.40;92.30
52787;DHT22;38661;53.152;5.846;2023-11-19T07:25:44;11.40;92.50
52787;DHT22;38661;53.152;5.846;2023-11-19T07:28:13;11.40;92.20
52787;DHT22;38661;53.152;5.846;2023-11-19T07:30:40;11.30;92.40
52787;DHT22;38661;53.152;5.846;2023-11-19T07:33:05;11.40;92.20
52787;DHT22;38661;53.152;5.846;2023-11-19T07:35:32;11.40;92.00
52787;DHT22;38661;53.152;5.846;2023-11-19T07:37:57;11.40;92.30
52787;DHT22;38661;53.152;5.846;2023-11-19T07:40:26;11.40;92.20
52787;DHT22;38661;53.152;5.846;2023-11-19T07:42:52;11.30;92.60
52787;DHT22;38661;53.152;5.846;2023-11-19T07:45:17;11.40;92.40
52787;DHT22;38661;53.152;5.846;2023-11-19T07:47:44;11.40;92.40
52787;DHT22;38661;53.152;5.846;2023-11-19T07:50:12;11.40;92.50
52787;DHT22;38661;53.152;5.846;2023-11-19T07:52:42;11.40;92.50
52787;DHT22;38661;53.152;5.846;2023-11-19T07:55:08;11.40;92.50
52787;DHT22;38661;53.152;5.846;2023-11-19T07:57:34;11.40;92.50
52787;DHT22;38661;53.152;5.846;2023-11-19T08:00:00;11.40;92.50
52787;DHT22;38661;53.152;5.846;2023-11-19T08:02:27;11.50;92.50
52787;DHT22;38661;53.152;5.846;2023-11-19T08:04:53;11.50;92.60
52787;DHT22;38661;53.152;5.846;2023-11-19T08:07:21;11.50;92.60
52787;DHT22;38661;53.152;5.846;2023-11-19T08:09:47;11.50;92.90
52787;DHT22;38661;53.152;5.846;2023-11-19T08:12:13;11.50;93.00
52787;DHT22;38661;53.152;5.846;2023-11-19T08:14:43;11.50;93.10
52787;DHT22;38661;53.152;5.846;2023-11-19T08:17:09;11.40;93.00
52787;DHT22;38661;53.152;5.846;2023-11-19T08:19:35;11.40;93.20
52787;DHT22;38661;53.152;5.846;2023-11-19T08:22:01;11.40;93.30
52787;DHT22;38661;53.152;5.846;2023-11-19T08:24:26;11.50;93.50
52787;DHT22;38661;53.152;5.846;2023-11-19T08:26:52;11.40;93.50
52787;DHT22;38661;53.152;5.846;2023-11-19T08:29:18;11.40;93.60
52787;DHT22;38661;53.152;5.846;2023-11-19T08:31:43;11.40;93.80
52787;DHT22;38661;53.152;5.846;2023-11-19T08:34:09;11.40;93.80
52787;DHT22;38661;53.152;5.846;2023-11-19T08:36:37;11.40;93.80
52787;DHT22;38661;53.152;5.846;2023-11-19T08:39:03;11.40;94.00
52787;DHT22;38661;53.152;5.846;2023-11-19T08:41:29;11.50;94.00
52787;DHT22;38661;53.152;5.846;2023-11-19T08:43:54;11.50;93.90
52787;DHT22;38661;53.152;5.846;2023-11-19T08:46:20;11.50;94.10
52787;DHT22;38661;53.152;5.846;2023-11-19T08:48:46;11.50;94.10
52787;DHT22;38661;53.152;5.846;2023-11-19T08:51:12;11.60;93.90
52787;DHT22;38661;53.152;5.846;2023-11-19T08:53:38;11.60;94.00
52787;DHT22;38661;53.152;5.846;2023-11-19T08:56:04;11.70;93.90
52787;DHT22;38661;53.152;5.846;2023-11-19T08:58:30;11.70;93.80
52787;DHT22;38661;53.152;5.846;2023-11-19T09:00:56;11.80;93.60
52787;DHT22;38661;53.152;5.846;2023-11-19T09:03:23;11.80;93.40
52787;DHT22;38661;53.152;5.846;2023-11-19T09:05:49;11.80;93.30
52787;DHT22;38661;53.152;5.846;2023-11-19T09:08:15;11.90;93.10
52787;DHT22;38661;53.152;5.846;2023-11-19T09:10:40;12.00;93.10
52787;DHT22;38661;53.152;5.846;2023-11-19T09:13:06;12.00;92.90
52787;DHT22;38661;53.152;5.846;2023-11-19T09:15:32;12.00;92.80
52787;DHT22;38661;53.152;5.846;2023-11-19T09:17:57;12.00;92.70
52787;DHT22;38661;53.152;5.846;2023-11-19T09:20:23;12.00;92.60
52787;DHT22;38661;53.152;5.846;2023-11-19T09:22:49;12.10;92.30
52787;DHT22;38661;53.152;5.846;2023-11-19T09:25:14;12.00;92.10
52787;DHT22;38661;53.152;5.846;2023-11-19T09:27:44;12.00;92.20
52787;DHT22;38661;53.152;5.846;2023-11-19T09:30:10;12.00;92.30
52787;DHT22;38661;53.152;5.846;2023-11-19T09:32:36;12.00;92.40
52787;DHT22;38661;53.152;5.846;2023-11-19T09:35:03;12.10;92.10
52787;DHT22;38661;53.152;5.846;2023-11-19T09:37:29;12.10;91.80
52787;DHT22;38661;53.152;5.846;2023-11-19T09:39:55;12.10;91.70
52787;DHT22;38661;53.152;5.846;2023-11-19T09:42:20;12.10;91.50
52787;DHT22;38661;53.152;5.846;2023-11-19T09:44:47;12.20;91.40
52787;DHT22;38661;53.152;5.846;2023-11-19T09:47:14;12.20;91.50
52787;DHT22;38661;53.152;5.846;2023-11-19T09:49:40;12.20;91.50
52787;DHT22;38661;53.152;5.846;2023-11-19T09:52:06;12.20;91.60
52787;DHT22;38661;53.152;5.846;2023-11-19T09:54:32;12.10;91.70
52787;DHT22;38661;53.152;5.846;2023-11-19T09:56:59;12.30;91.60
52787;DHT22;38661;53.152;5.846;2023-11-19T09:59:33;12.10;91.70
52787;DHT22;38661;53.152;5.846;2023-11-19T10:01:59;12.20;91.70
52787;DHT22;38661;53.152;5.846;2023-11-19T10:04:25;12.10;91.60
52787;DHT22;38661;53.152;5.846;2023-11-19T10:06:53;12.20;91.60
52787;DHT22;38661;53.152;5.846;2023-11-19T10:09:18;12.20;91.70
52787;DHT22;38661;53.152;5.846;2023-11-19T10:11:44;12.20;91.60
52787;DHT22;38661;53.152;5.846;2023-11-19T10:14:10;12.30;91.50
52787;DHT22;38661;53.152;5.846;2023-11-19T10:16:36;12.30;91.00
52787;DHT22;38661;53.152;5.846;2023-11-19T10:19:02;12.30;91.00
52787;DHT22;38661;53.152;5.846;2023-11-19T10:21:29;12.30;91.00
52787;DHT22;38661;53.152;5.846;2023-11-19T10:23:57;12.30;90.90
52787;DHT22;38661;53.152;5.846;2023-11-19T10:26:26;12.40;91.00
52787;DHT22;38661;53.152;5.846;2023-11-19T10:28:52;12.40;90.90
52787;DHT22;38661;53.152;5.846;2023-11-19T10:31:20;12.40;90.90
52787;DHT22;38661;53.152;5.846;2023-11-19T10:33:52;12.40;90.80
52787;DHT22;38661;53.152;5.846;2023-11-19T10:36:18;12.40;90.60
52787;DHT22;38661;53.152;5.846;2023-11-19T10:38:54;12.40;90.70
52787;DHT22;38661;53.152;5.846;2023-11-19T10:41:30;12.50;90.30
52787;DHT22;38661;53.152;5.846;2023-11-19T10:43:57;12.50;89.90
52787;DHT22;38661;53.152;5.846;2023-11-19T10:46:22;12.60;89.80
52787;DHT22;38661;53.152;5.846;2023-11-19T10:48:52;12.60;89.70
52787;DHT22;38661;53.152;5.846;2023-11-19T10:51:20;12.80;89.70
52787;DHT22;38661;53.152;5.846;2023-11-19T10:53:49;12.80;89.30
52787;DHT22;38661;53.152;5.846;2023-11-19T10:56:17;12.80;88.70
52787;DHT22;38661;53.152;5.846;2023-11-19T10:58:48;12.70;89.00
52787;DHT22;38661;53.152;5.846;2023-11-19T11:01:20;12.80;89.00
52787;DHT22;38661;53.152;5.846;2023-11-19T11:03:51;12.70;89.10
52787;DHT22;38661;53.152;5.846;2023-11-19T11:06:19;12.70;89.30
52787;DHT22;38661;53.152;5.846;2023-11-19T11:08:48;12.70;89.60
52787;DHT22;38661;53.152;5.846;2023-11-19T11:11:15;12.70;89.30
52787;DHT22;38661;53.152;5.846;2023-11-19T11:13:47;12.70;89.50
52787;DHT22;38661;53.152;5.846;2023-11-19T11:16:15;12.70;89.80
52787;DHT22;38661;53.152;5.846;2023-11-19T11:18:45;12.70;89.60
52787;DHT22;38661;53.152;5.846;2023-11-19T11:21:17;12.60;89.60
52787;DHT22;38661;53.152;5.846;2023-11-19T11:24:20;12.60;89.80
52787;DHT22;38661;53.152;5.846;2023-11-19T11:32:25;12.60;90.30
52787;DHT22;38661;53.152;5.846;2023-11-19T11:37:53;12.50;90.80
52787;DHT22;38661;53.152;5.846;2023-11-19T11:40:21;12.50;91.00
52787;DHT22;38661;53.152;5.846;2023-11-19T11:42:49;12.50;91.00
52787;DHT22;38661;53.152;5.846;2023-11-19T11:45:17;12.50;90.70
52787;DHT22;38661;53.152;5.846;2023-11-19T11:50:10;12.60;90.40
52787;DHT22;38661;53.152;5.846;2023-11-19T11:55:36;12.80;89.70
52787;DHT22;38661;53.152;5.846;2023-11-19T11:58:06;12.80;89.20
52787;DHT22;38661;53.152;5.846;2023-11-19T12:00:33;12.90;89.30
52787;DHT22;38661;53.152;5.846;2023-11-19T12:03:04;13.00;88.70
52787;DHT22;38661;53.152;5.846;2023-11-19T12:05:30;13.00;88.70
52787;DHT22;38661;53.152;5.846;2023-11-19T12:08:01;13.10;88.30
52787;DHT22;38661;53.152;5.846;2023-11-19T12:10:31;13.10;88.40
52787;DHT22;38661;53.152;5.846;2023-11-19T12:13:01;13.20;88.20
52787;DHT22;38661;53.152;5.846;2023-11-19T12:15:27;13.10;87.70
52787;DHT22;38661;53.152;5.846;2023-11-19T12:17:54;13.20;87.70
52787;DHT22;38661;53.152;5.846;2023-11-19T12:20:23;13.10;87.70
52787;DHT22;38661;53.152;5.846;2023-11-19T12:22:52;13.10;87.50
52787;DHT22;38661;53.152;5.846;2023-11-19T12:25:18;13.20;87.40
52787;DHT22;38661;53.152;5.846;2023-11-19T12:27:48;13.20;87.30
52787;DHT22;38661;53.152;5.846;2023-11-19T12:32:48;13.40;87.40
52787;DHT22;38661;53.152;5.846;2023-11-19T12:35:15;13.30;87.20
52787;DHT22;38661;53.152;5.846;2023-11-19T12:37:45;13.30;87.00
52787;DHT22;38661;53.152;5.846;2023-11-19T12:40:15;13.30;86.90
52787;DHT22;38661;53.152;5.846;2023-11-19T12:42:41;13.30;87.20
52787;DHT22;38661;53.152;5.846;2023-11-19T12:45:07;13.30;86.70
52787;DHT22;38661;53.152;5.846;2023-11-19T12:47:37;13.30;86.60
52787;DHT22;38661;53.152;5.846;2023-11-19T12:50:03;13.30;86.50
52787;DHT22;38661;53.152;5.846;2023-11-19T12:52:30;13.20;86.80
52787;DHT22;38661;53.152;5.846;2023-11-19T12:54:56;13.20;86.90
52787;DHT22;38661;53.152;5.846;2023-11-19T12:57:39;13.20;86.60
52787;DHT22;38661;53.152;5.846;2023-11-19T13:00:06;13.20;87.10
52787;DHT22;38661;53.152;5.846;2023-11-19T13:02:51;13.10;87.20
52787;DHT22;38661;53.152;5.846;2023-11-19T13:05:30;13.00;87.50
52787;DHT22;38661;53.152;5.846;2023-11-19T13:08:07;13.00;87.60
52787;DHT22;38661;53.152;5.846;2023-11-19T13:10:54;13.00;87.60
52787;DHT22;38661;53.152;5.846;2023-11-19T13:13:20;12.90;87.80
52787;DHT22;38661;53.152;5.846;2023-11-19T13:15:45;12.90;87.80
52787;DHT22;38661;53.152;5.846;2023-11-19T13:18:12;12.80;88.00
52787;DHT22;38661;53.152;5.846;2023-11-19T13:20:38;12.80;88.20
52787;DHT22;38661;53.152;5.846;2023-11-19T13:23:05;12.80;88.20
52787;DHT22;38661;53.152;5.846;2023-11-19T13:25:31;12.70;88.10
52787;DHT22;38661;53.152;5.846;2023-11-19T13:28:00;12.70;88.40
52787;DHT22;38661;53.152;5.846;2023-11-19T13:30:29;12.70;88.30
52787;DHT22;38661;53.152;5.846;2023-11-19T13:32:58;12.70;88.30
52787;DHT22;38661;53.152;5.846;2023-11-19T13:35:24;12.60;88.20
52787;DHT22;38661;53.152;5.846;2023-11-19T13:37:52;12.60;88.20
52787;DHT22;38661;53.152;5.846;2023-11-19T13:40:19;12.60;88.30
52787;DHT22;38661;53.152;5.846;2023-11-19T13:42:47;12.70;88.00
52787;DHT22;38661;53.152;5.846;2023-11-19T13:45:14;12.70;87.90
52787;DHT22;38661;53.152;5.846;2023-11-19T13:47:42;12.70;88.10
52787;DHT22;38661;53.152;5.846;2023-11-19T13:50:18;12.60;88.20
52787;DHT22;38661;53.152;5.846;2023-11-19T13:52:44;12.50;88.40
52787;DHT22;38661;53.152;5.846;2023-11-19T13:55:13;12.60;88.70
52787;DHT22;38661;53.152;5.846;2023-11-19T13:57:40;12.50;88.70
52787;DHT22;38661;53.152;5.846;2023-11-19T14:00:10;12.50;88.90
52787;DHT22;38661;53.152;5.846;2023-11-19T14:02:42;12.50;88.60
52787;DHT22;38661;53.152;5.846;2023-11-19T14:05:12;12.50;88.60
52787;DHT22;38661;53.152;5.846;2023-11-19T14:07:39;12.50;88.90
52787;DHT22;38661;53.152;5.846;2023-11-19T14:10:05;12.50;88.60
52787;DHT22;38661;53.152;5.846;2023-11-19T14:12:32;12.40;88.90
52787;DHT22;38661;53.152;5.846;2023-11-19T14:14:58;12.50;88.80
52787;DHT22;38661;53.152;5.846;2023-11-19T14:17:25;12.40;88.90
52787;DHT22;38661;53.152;5.846;2023-11-19T14:19:51;12.30;89.20
52787;DHT22;38661;53.152;5.846;2023-11-19T14:22:17;12.30;89.40
52787;DHT22;38661;53.152;5.846;2023-11-19T14:24:43;12.30;89.60
52787;DHT22;38661;53.152;5.846;2023-11-19T14:27:12;12.30;89.80
52787;DHT22;38661;53.152;5.846;2023-11-19T14:29:38;12.30;89.50
52787;DHT22;38661;53.152;5.846;2023-11-19T14:32:05;12.20;89.60
52787;DHT22;38661;53.152;5.846;2023-11-19T14:34:31;12.30;89.40
52787;DHT22;38661;53.152;5.846;2023-11-19T14:36:58;12.20;89.80
52787;DHT22;38661;53.152;5.846;2023-11-19T14:39:24;12.20;89.70
52787;DHT22;38661;53.152;5.846;2023-11-19T14:41:50;12.30;89.50
52787;DHT22;38661;53.152;5.846;2023-11-19T14:44:16;12.20;89.50
52787;DHT22;38661;53.152;5.846;2023-11-19T14:46:42;12.20;89.20
52787;DHT22;38661;53.152;5.846;2023-11-19T14:49:08;12.10;89.30
52787;DHT22;38661;53.152;5.846;2023-11-19T14:51:37;12.10;89.40
52787;DHT22;38661;53.152;5.846;2023-11-19T14:54:06;12.20;89.40
52787;DHT22;38661;53.152;5.846;2023-11-19T14:56:32;12.10;89.40
52787;DHT22;38661;53.152;5.846;2023-11-19T14:58:58;12.20;89.50
52787;DHT22;38661;53.152;5.846;2023-11-19T15:01:24;12.20;89.30
52787;DHT22;38661;53.152;5.846;2023-11-19T15:03:52;12.20;89.30
52787;DHT22;38661;53.152;5.846;2023-11-19T15:06:22;12.20;89.50
52787;DHT22;38661;53.152;5.846;2023-11-19T15:08:48;12.10;89.30
52787;DHT22;38661;53.152;5.846;2023-11-19T15:11:13;12.10;89.60
52787;DHT22;38661;53.152;5.846;2023-11-19T15:13:39;12.10;89.50
52787;DHT22;38661;53.152;5.846;2023-11-19T15:16:07;12.10;89.80
52787;DHT22;38661;53.152;5.846;2023-11-19T15:18:37;12.00;90.60
52787;DHT22;38661;53.152;5.846;2023-11-19T15:21:03;12.00;91.30
52787;DHT22;38661;53.152;5.846;2023-11-19T15:23:29;11.90;91.20
52787;DHT22;38661;53.152;5.846;2023-11-19T15:25:55;11.80;91.60
52787;DHT22;38661;53.152;5.846;2023-11-19T15:28:21;11.80;92.10
52787;DHT22;38661;53.152;5.846;2023-11-19T15:30:47;11.50;92.60
52787;DHT22;38661;53.152;5.846;2023-11-19T15:33:13;11.50;93.50
52787;DHT22;38661;53.152;5.846;2023-11-19T15:35:39;11.40;93.60
52787;DHT22;38661;53.152;5.846;2023-11-19T15:38:06;11.30;94.10
52787;DHT22;38661;53.152;5.846;2023-11-19T15:40:35;11.30;94.00
52787;DHT22;38661;53.152;5.846;2023-11-19T15:43:03;11.30;94.00
52787;DHT22;38661;53.152;5.846;2023-11-19T15:45:29;11.40;94.30
52787;DHT22;38661;53.152;5.846;2023-11-19T15:47:55;11.40;94.00
52787;DHT22;38661;53.152;5.846;2023-11-19T15:50:21;11.50;94.10